Time;durP1;ratioP1;P1;durP2;ratioP2;P2;SDS_P1;SDS_P2;PMS_P1;PMS_P2;Temp;Humidity;BMP_temperature;BMP_pressure;BME280_temperature;BME280_humidity;BME280_pressure;Samples;Min_cycle;Max_cycle;Signal;HPM_P1;HPM_P2
2023/08/29 00:01:23;;;;;;;0.33;0.30;;;13.40;99.90;;;;;;5068319;28;20560;-77
2023/08/29 00:03:51;;;;;;;0.67;0.50;;;13.40;99.90;;;;;;5067716;28;20473;-76
2023/08/29 00:06:18;;;;;;;2.23;0.40;;;13.60;99.90;;;;;;5066168;28;21015;-76
2023/08/29 00:08:45;;;;;;;0.60;0.40;;;13.60;99.90;;;;;;5068557;28;20451;-76
2023/08/29 00:11:12;;;;;;;0.47;0.40;;;13.60;99.90;;;;;;5067492;28;20480;-80
2023/08/29 00:13:40;;;;;;;0.50;0.50;;;13.50;99.90;;;;;;5067532;28;20432;-77
2023/08/29 00:16:07;;;;;;;0.40;0.40;;;13.50;99.90;;;;;;5068291;28;20919;-78
2023/08/29 00:18:34;;;;;;;0.40;0.30;;;13.50;99.90;;;;;;5067358;28;20452;-76
2023/08/29 00:21:01;;;;;;;0.50;0.40;;;13.60;99.90;;;;;;5067548;28;20485;-77
2023/08/29 00:23:28;;;;;;;0.50;0.40;;;13.50;99.90;;;;;;5068034;28;20917;-77
2023/08/29 00:25:55;;;;;;;0.40;0.30;;;13.40;99.90;;;;;;5067071;28;20460;-76
2023/08/29 00:28:23;;;;;;;0.40;0.30;;;13.30;99.90;;;;;;5067173;28;20502;-75
2023/08/29 00:30:54;;;;;;;0.50;0.30;;;13.20;99.90;;;;;;5067600;28;20448;-73
2023/08/29 00:33:21;;;;;;;0.40;0.20;;;13.20;99.90;;;;;;5058664;28;20467;-75
2023/08/29 00:35:48;;;;;;;0.40;0.30;;;13.10;99.90;;;;;;5066965;28;20489;-75
2023/08/29 00:38:15;;;;;;;0.40;0.30;;;13.10;99.90;;;;;;5066156;28;20473;-75
2023/08/29 00:40:42;;;;;;;0.40;0.30;;;13.00;99.90;;;;;;5066584;28;20459;-76
2023/08/29 00:43:09;;;;;;;0.40;0.30;;;13.00;99.90;;;;;;5066974;28;20490;-75
2023/08/29 00:45:38;;;;;;;0.40;0.30;;;13.00;99.90;;;;;;5067913;28;20508;-75
2023/08/29 00:48:08;;;;;;;0.40;0.30;;;13.00;99.90;;;;;;5066752;28;20462;-75
2023/08/29 00:50:36;;;;;;;0.97;0.30;;;13.00;99.90;;;;;;5068964;28;20479;-75
2023/08/29 00:53:06;;;;;;;0.40;0.40;;;13.00;99.90;;;;;;5067422;28;20438;-78
2023/08/29 00:55:34;;;;;;;0.40;0.30;;;12.90;99.90;;;;;;5066746;28;20485;-76
2023/08/29 00:58:02;;;;;;;0.60;0.40;;;12.90;99.90;;;;;;5067026;28;20805;-77
2023/08/29 01:00:31;;;;;;;0.40;0.37;;;12.90;99.90;;;;;;5067187;28;20451;-75
2023/08/29 01:02:58;;;;;;;0.47;0.40;;;12.90;99.90;;;;;;5067021;28;20539;-76
2023/08/29 01:05:28;;;;;;;0.40;0.37;;;12.90;99.90;;;;;;5066297;28;20464;-77
2023/08/29 01:07:58;;;;;;;0.40;0.30;;;12.90;99.90;;;;;;5067267;28;20443;-75
2023/08/29 01:10:37;;;;;;;0.60;0.40;;;12.90;99.90;;;;;;5062835;28;20550;-75
2023/08/29 01:13:11;;;;;;;0.50;0.43;;;12.90;99.90;;;;;;5067531;28;20475;-79
2023/08/29 01:15:40;;;;;;;1.67;0.60;;;12.90;99.90;;;;;;5067128;28;20864;-74
2023/08/29 01:18:08;;;;;;;0.43;0.40;;;13.00;99.90;;;;;;5066560;28;20468;-76
2023/08/29 01:20:37;;;;;;;0.40;0.37;;;12.90;99.90;;;;;;5065783;28;20452;-78
2023/08/29 01:23:11;;;;;;;0.50;0.40;;;12.90;99.90;;;;;;5066145;28;20923;-75
2023/08/29 01:25:46;;;;;;;0.80;0.30;;;12.90;99.90;;;;;;5066531;28;20444;-75
2023/08/29 01:28:15;;;;;;;0.63;0.63;;;13.00;99.90;;;;;;5067475;28;20511;-79
2023/08/29 01:30:43;;;;;;;0.50;0.40;;;13.00;99.90;;;;;;5065268;28;20941;-75
2023/08/29 01:33:11;;;;;;;0.40;0.30;;;13.00;99.90;;;;;;5061202;28;20533;-75
2023/08/29 01:35:43;;;;;;;0.40;0.30;;;13.00;99.90;;;;;;5061184;28;20467;-75
2023/08/29 01:38:10;;;;;;;0.47;0.40;;;13.10;99.90;;;;;;5065670;28;20975;-76
2023/08/29 01:40:39;;;;;;;0.80;0.50;;;13.00;99.90;;;;;;5065291;28;20524;-79
2023/08/29 01:43:06;;;;;;;0.57;0.50;;;13.00;99.90;;;;;;5066596;28;20544;-76
2023/08/29 01:45:34;;;;;;;4.83;1.43;;;13.10;99.90;;;;;;5070873;28;20460;-79
2023/08/29 01:48:01;;;;;;;0.50;0.50;;;13.10;99.90;;;;;;5066983;28;21019;-76
2023/08/29 01:50:30;;;;;;;0.40;0.30;;;13.10;99.90;;;;;;5066350;28;20458;-77
2023/08/29 01:52:58;;;;;;;0.40;0.40;;;13.10;99.90;;;;;;5066620;28;20924;-76
2023/08/29 01:55:26;;;;;;;1.00;0.90;;;13.10;99.90;;;;;;5065519;28;20514;-79
2023/08/29 01:57:55;;;;;;;0.43;0.37;;;13.10;99.90;;;;;;5066168;28;20534;-78
2023/08/29 02:00:23;;;;;;;0.70;0.47;;;13.10;99.90;;;;;;5065226;28;20585;-79
2023/08/29 02:02:51;;;;;;;0.40;0.37;;;13.10;99.90;;;;;;5066415;28;20487;-75
2023/08/29 02:05:18;;;;;;;0.50;0.40;;;13.20;99.90;;;;;;5065801;28;20926;-76
2023/08/29 02:07:45;;;;;;;0.40;0.40;;;13.20;99.90;;;;;;5066212;28;20452;-78
2023/08/29 02:10:12;;;;;;;0.47;0.40;;;13.20;99.90;;;;;;5066491;28;20460;-76
2023/08/29 02:12:40;;;;;;;0.50;0.40;;;13.20;99.90;;;;;;5066663;28;20509;-76
2023/08/29 02:15:09;;;;;;;0.40;0.40;;;13.10;99.90;;;;;;5065718;28;20459;-79
2023/08/29 02:17:37;;;;;;;0.40;0.40;;;13.10;99.90;;;;;;5065742;28;20538;-79
2023/08/29 02:20:06;;;;;;;0.47;0.40;;;13.10;99.90;;;;;;5066160;28;20522;-76
2023/08/29 02:22:33;;;;;;;10.43;1.80;;;13.10;99.90;;;;;;5066386;28;20479;-78
2023/08/29 02:25:04;;;;;;;0.50;0.50;;;13.10;99.90;;;;;;5065363;28;20916;-76
2023/08/29 02:27:31;;;;;;;0.50;0.40;;;13.10;99.90;;;;;;5066069;28;20568;-76
2023/08/29 02:29:58;;;;;;;0.40;0.40;;;13.10;99.90;;;;;;5065760;28;20473;-78
2023/08/29 02:32:25;;;;;;;0.57;0.50;;;13.10;99.90;;;;;;5066293;28;20480;-76
2023/08/29 02:34:51;;;;;;;0.50;0.40;;;13.10;99.90;;;;;;5062553;28;20635;-81
2023/08/29 02:37:20;;;;;;;0.70;0.40;;;13.10;99.90;;;;;;5061017;28;20997;-81
2023/08/29 02:39:47;;;;;;;0.57;0.40;;;13.10;99.90;;;;;;5066615;28;21082;-75
2023/08/29 02:42:14;;;;;;;0.40;0.40;;;13.10;99.90;;;;;;5065410;28;20537;-78
2023/08/29 02:44:40;;;;;;;0.50;0.40;;;13.20;99.90;;;;;;5065980;28;20525;-76
2023/08/29 02:47:07;;;;;;;0.50;0.40;;;13.10;99.90;;;;;;5065565;28;20475;-76
2023/08/29 02:49:34;;;;;;;0.40;0.30;;;13.20;99.90;;;;;;5065994;28;20865;-75
2023/08/29 02:52:01;;;;;;;0.50;0.40;;;13.20;99.90;;;;;;5064596;28;20449;-81
2023/08/29 02:54:30;;;;;;;0.50;0.40;;;13.20;99.90;;;;;;5065874;28;20446;-76
2023/08/29 02:56:57;;;;;;;0.50;0.50;;;13.20;99.90;;;;;;5064299;28;20482;-78
2023/08/29 02:59:26;;;;;;;0.60;0.50;;;13.30;99.90;;;;;;5066885;28;20433;-80
2023/08/29 03:01:53;;;;;;;0.40;0.40;;;13.20;99.90;;;;;;5064852;28;20493;-76
2023/08/29 03:04:20;;;;;;;0.53;0.40;;;13.20;99.90;;;;;;5066734;28;20445;-80
2023/08/29 03:06:47;;;;;;;0.50;0.40;;;13.20;99.90;;;;;;5069187;28;20501;-80
2023/08/29 03:09:14;;;;;;;0.50;0.50;;;13.20;99.90;;;;;;5068828;28;20497;-78
2023/08/29 03:11:42;;;;;;;0.40;0.40;;;13.20;99.90;;;;;;5068633;28;20501;-75
2023/08/29 03:14:09;;;;;;;0.50;0.43;;;13.30;99.90;;;;;;5069028;28;20508;-78
2023/08/29 03:16:36;;;;;;;0.60;0.43;;;13.20;99.90;;;;;;5068634;28;20524;-79
2023/08/29 03:19:03;;;;;;;1.13;0.50;;;13.20;99.90;;;;;;5068882;28;21300;-76
2023/08/29 03:21:30;;;;;;;0.50;0.40;;;13.30;99.90;;;;;;5069169;28;20970;-76
2023/08/29 03:23:57;;;;;;;0.50;0.40;;;13.30;99.90;;;;;;5068711;28;20516;-78
2023/08/29 03:26:24;;;;;;;0.40;0.30;;;13.40;99.90;;;;;;5061459;28;20502;-79
2023/08/29 03:28:52;;;;;;;0.50;0.50;;;13.40;99.90;;;;;;5068805;28;20446;-75
2023/08/29 03:31:19;;;;;;;0.93;0.60;;;13.40;99.90;;;;;;5068902;28;20440;-80
2023/08/29 03:33:46;;;;;;;0.40;0.40;;;13.40;99.90;;;;;;5065251;28;20568;-75
2023/08/29 03:36:14;;;;;;;0.50;0.40;;;13.40;99.90;;;;;;5066574;28;20531;-77
2023/08/29 03:38:42;;;;;;;1.27;0.53;;;13.60;99.90;;;;;;5065507;28;20842;-79
2023/08/29 03:41:09;;;;;;;0.50;0.40;;;13.40;99.90;;;;;;5068275;28;20449;-77
2023/08/29 03:43:37;;;;;;;0.50;0.40;;;13.40;99.90;;;;;;5067086;28;20549;-77
2023/08/29 03:46:06;;;;;;;0.40;0.30;;;13.40;99.90;;;;;;5063356;28;20888;-79
2023/08/29 03:48:34;;;;;;;0.60;0.60;;;13.40;99.90;;;;;;5067335;28;21015;-75
2023/08/29 03:51:05;;;;;;;0.47;0.40;;;13.50;99.90;;;;;;5067648;28;21044;-76
2023/08/29 03:53:32;;;;;;;3.07;0.50;;;13.50;99.90;;;;;;5068589;28;20455;-76
2023/08/29 03:56:02;;;;;;;0.50;0.40;;;13.40;99.90;;;;;;5068270;28;21009;-77
2023/08/29 03:58:29;;;;;;;0.40;0.40;;;13.30;99.90;;;;;;5068576;28;20821;-81
2023/08/29 04:00:57;;;;;;;0.43;0.30;;;13.30;99.90;;;;;;5068141;28;20532;-75
2023/08/29 04:03:25;;;;;;;0.60;0.40;;;13.40;99.90;;;;;;5068114;28;20481;-78
2023/08/29 04:05:52;;;;;;;0.50;0.40;;;13.40;99.90;;;;;;5067034;28;20471;-76
2023/08/29 04:08:19;;;;;;;0.40;0.40;;;13.40;99.90;;;;;;5067438;28;20444;-79
2023/08/29 04:10:46;;;;;;;0.93;0.40;;;13.30;99.90;;;;;;5067339;28;20520;-76
2023/08/29 04:13:13;;;;;;;0.53;0.40;;;13.40;99.90;;;;;;5068401;28;20451;-80
2023/08/29 04:15:40;;;;;;;0.50;0.47;;;13.40;99.90;;;;;;5066642;28;21094;-79
2023/08/29 04:18:08;;;;;;;2.73;0.80;;;13.50;99.90;;;;;;5067178;28;20501;-81
2023/08/29 04:20:37;;;;;;;0.70;0.70;;;13.40;99.90;;;;;;5067693;28;20855;-76
2023/08/29 04:23:06;;;;;;;1.00;0.70;;;13.50;99.90;;;;;;5067280;28;20486;-77
2023/08/29 04:25:35;;;;;;;0.67;0.60;;;13.50;99.90;;;;;;5066483;28;20436;-74
2023/08/29 04:28:02;;;;;;;1.13;1.00;;;13.50;99.90;;;;;;5063806;28;20558;-75
2023/08/29 04:30:29;;;;;;;0.90;0.70;;;13.40;99.90;;;;;;5069358;28;20436;-80
2023/08/29 04:32:59;;;;;;;0.83;0.70;;;13.40;99.90;;;;;;5068037;28;20444;-77
2023/08/29 04:35:26;;;;;;;1.47;0.80;;;13.40;99.90;;;;;;5064035;28;20469;-76
2023/08/29 04:37:55;;;;;;;1.73;1.10;;;13.40;99.90;;;;;;5066858;28;20448;-75
2023/08/29 04:40:22;;;;;;;1.07;0.70;;;13.30;99.90;;;;;;5066650;28;20530;-78
2023/08/29 04:42:51;;;;;;;1.10;1.00;;;13.50;99.90;;;;;;5059133;28;20516;-77
2023/08/29 04:45:19;;;;;;;2.30;1.37;;;13.50;99.90;;;;;;5067395;28;20541;-78
2023/08/29 04:47:47;;;;;;;2.07;1.20;;;13.60;99.90;;;;;;5067210;28;20589;-79
2023/08/29 04:50:15;;;;;;;1.13;1.10;;;13.50;99.90;;;;;;5067056;28;20443;-76
2023/08/29 04:52:42;;;;;;;0.77;0.77;;;13.50;99.90;;;;;;5067318;28;20770;-75
2023/08/29 04:55:10;;;;;;;0.70;0.70;;;13.60;99.90;;;;;;5066647;28;20460;-76
2023/08/29 04:57:37;;;;;;;4.73;1.27;;;13.50;99.90;;;;;;5067045;28;20538;-78
2023/08/29 05:00:09;;;;;;;1.20;0.77;;;13.50;99.90;;;;;;5066154;28;20956;-76
2023/08/29 05:02:35;;;;;;;1.10;0.70;;;13.50;99.90;;;;;;5065974;28;20898;-76
2023/08/29 05:05:03;;;;;;;0.83;0.80;;;13.50;99.90;;;;;;5065010;28;20461;-80
2023/08/29 05:07:30;;;;;;;0.90;0.70;;;13.40;99.90;;;;;;5066185;28;20444;-78
2023/08/29 05:09:57;;;;;;;0.93;0.90;;;13.30;99.90;;;;;;5065640;28;20472;-80
2023/08/29 05:12:27;;;;;;;0.83;0.70;;;13.40;99.90;;;;;;5064930;28;20445;-76
2023/08/29 05:14:54;;;;;;;1.10;0.87;;;13.40;99.90;;;;;;5066164;28;20999;-79
2023/08/29 05:17:21;;;;;;;1.20;1.10;;;13.40;99.90;;;;;;5066265;28;20530;-82
2023/08/29 05:19:49;;;;;;;1.10;1.00;;;13.50;99.90;;;;;;5064291;28;20467;-77
2023/08/29 05:22:16;;;;;;;1.30;1.20;;;13.40;99.90;;;;;;5066997;28;20547;-76
2023/08/29 05:24:43;;;;;;;3.50;2.10;;;13.40;99.90;;;;;;5068673;28;20486;-80
2023/08/29 05:27:10;;;;;;;1.80;1.20;;;13.40;99.90;;;;;;5068767;28;21275;-77
2023/08/29 05:29:39;;;;;;;2.00;1.70;;;13.40;99.90;;;;;;5066039;28;20460;-81
2023/08/29 05:32:06;;;;;;;1.63;1.40;;;13.50;99.90;;;;;;5063492;28;20577;-79
2023/08/29 05:34:33;;;;;;;1.40;1.30;;;13.50;99.90;;;;;;5060534;28;20869;-79
2023/08/29 05:37:00;;;;;;;1.53;0.70;;;13.50;99.90;;;;;;5067892;28;20491;-77
2023/08/29 05:39:27;;;;;;;1.13;1.00;;;13.50;99.90;;;;;;5064074;28;20521;-81
2023/08/29 05:41:54;;;;;;;1.23;0.93;;;13.50;99.90;;;;;;5064636;28;20523;-76
2023/08/29 05:44:21;;;;;;;1.10;1.00;;;13.60;99.90;;;;;;5066842;28;20491;-76
2023/08/29 05:46:49;;;;;;;1.47;1.37;;;13.70;99.90;;;;;;5063821;28;20708;-76
2023/08/29 05:49:16;;;;;;;0.77;0.60;;;13.50;99.90;;;;;;5066693;28;20453;-79
2023/08/29 05:51:43;;;;;;;1.47;0.90;;;13.40;99.90;;;;;;5063322;28;20489;-76
2023/08/29 05:54:10;;;;;;;0.70;0.70;;;13.40;99.90;;;;;;5067755;28;20514;-76
2023/08/29 05:56:38;;;;;;;0.60;0.60;;;13.30;99.90;;;;;;5062099;28;20586;-77
2023/08/29 05:59:05;;;;;;;4.40;1.20;;;13.30;99.90;;;;;;5062309;28;20452;-78
2023/08/29 06:01:32;;;;;;;2.00;1.10;;;13.30;99.90;;;;;;5058690;28;20555;-77
2023/08/29 06:04:00;;;;;;;2.00;1.50;;;13.20;99.90;;;;;;5061678;28;20828;-78
2023/08/29 06:06:27;;;;;;;0.80;0.63;;;13.20;99.90;;;;;;5062706;28;20872;-78
2023/08/29 06:08:54;;;;;;;2.00;1.10;;;13.10;99.90;;;;;;5060988;28;20436;-78
2023/08/29 06:11:21;;;;;;;0.70;0.70;;;13.10;99.90;;;;;;5060335;28;20867;-77
2023/08/29 06:13:48;;;;;;;1.37;0.83;;;13.20;99.90;;;;;;5060816;28;20490;-77
2023/08/29 06:16:15;;;;;;;1.73;1.10;;;13.30;99.90;;;;;;5060545;28;20460;-75
2023/08/29 06:18:43;;;;;;;0.67;0.50;;;13.30;99.90;;;;;;5062293;28;20472;-76
2023/08/29 06:21:12;;;;;;;0.60;0.50;;;13.20;99.90;;;;;;5058171;28;21105;-76
2023/08/29 06:23:39;;;;;;;0.50;0.40;;;13.10;99.90;;;;;;5059070;28;20554;-75
2023/08/29 06:26:06;;;;;;;0.50;0.40;;;13.00;99.90;;;;;;5064101;28;20463;-74
2023/08/29 06:28:33;;;;;;;0.60;0.50;;;13.00;99.90;;;;;;5061797;28;20448;-75
2023/08/29 06:31:05;;;;;;;0.40;0.40;;;13.00;99.90;;;;;;5060576;28;20444;-75
2023/08/29 06:33:32;;;;;;;0.60;0.40;;;13.00;99.90;;;;;;5058844;28;20463;-77
2023/08/29 06:36:00;;;;;;;0.50;0.50;;;13.00;99.90;;;;;;5060996;28;20523;-74
2023/08/29 06:38:28;;;;;;;0.50;0.50;;;13.10;99.90;;;;;;5062002;28;20440;-77
2023/08/29 06:40:56;;;;;;;0.60;0.47;;;13.10;99.90;;;;;;5063106;28;20468;-75
2023/08/29 06:43:23;;;;;;;0.57;0.40;;;13.10;99.90;;;;;;5064872;28;20562;-75
2023/08/29 06:45:50;;;;;;;0.50;0.40;;;13.10;99.90;;;;;;5059196;28;20548;-75
2023/08/29 06:48:17;;;;;;;0.40;0.30;;;13.10;99.90;;;;;;5060476;28;20436;-74
2023/08/29 06:50:44;;;;;;;0.40;0.40;;;13.20;99.90;;;;;;5057002;28;20482;-74
2023/08/29 06:53:10;;;;;;;2.80;0.50;;;13.20;99.90;;;;;;5068691;28;20516;-78
2023/08/29 06:55:39;;;;;;;0.40;0.30;;;13.20;99.90;;;;;;5069261;28;20520;-74
2023/08/29 06:58:06;;;;;;;0.40;0.30;;;13.30;99.90;;;;;;5070048;28;20524;-74
2023/08/29 07:00:33;;;;;;;0.47;0.37;;;13.30;99.90;;;;;;5068748;28;20466;-74
2023/08/29 07:03:00;;;;;;;0.40;0.30;;;13.40;99.90;;;;;;5069553;28;20897;-76
2023/08/29 07:05:27;;;;;;;0.60;0.43;;;13.40;99.90;;;;;;5067586;28;20494;-77
2023/08/29 07:07:55;;;;;;;0.97;0.40;;;13.40;99.90;;;;;;5068810;28;20443;-77
2023/08/29 07:10:22;;;;;;;0.40;0.30;;;13.40;99.90;;;;;;5069054;28;20451;-77
2023/08/29 07:12:51;;;;;;;0.40;0.30;;;13.50;99.90;;;;;;5068683;28;20471;-74
2023/08/29 07:15:18;;;;;;;0.40;0.40;;;13.40;99.90;;;;;;5069498;28;20500;-75
2023/08/29 07:17:45;;;;;;;0.40;0.30;;;13.30;99.90;;;;;;5070644;28;20444;-74
2023/08/29 07:20:12;;;;;;;0.30;0.20;;;13.30;99.90;;;;;;5065225;28;20495;-77
2023/08/29 07:22:43;;;;;;;0.30;0.30;;;13.40;99.90;;;;;;5066068;28;20470;-74
2023/08/29 07:25:11;;;;;;;0.67;0.67;;;13.40;99.90;;;;;;5062902;28;20479;-76
2023/08/29 07:27:38;;;;;;;0.40;0.30;;;13.30;99.90;;;;;;5064559;28;20440;-75
2023/08/29 07:30:07;;;;;;;0.50;0.30;;;13.40;99.90;;;;;;5066939;28;20455;-75
2023/08/29 07:32:34;;;;;;;0.40;0.30;;;13.50;99.90;;;;;;5065384;28;20560;-75
2023/08/29 07:35:02;;;;;;;0.40;0.30;;;13.50;99.90;;;;;;5068773;28;20503;-74
2023/08/29 07:37:29;;;;;;;0.33;0.30;;;13.50;99.90;;;;;;5064264;28;20451;-74
2023/08/29 07:39:56;;;;;;;0.80;0.20;;;13.60;99.90;;;;;;5065795;28;20543;-74
2023/08/29 07:42:23;;;;;;;0.30;0.20;;;13.70;99.90;;;;;;5066709;28;20447;-76
2023/08/29 07:44:50;;;;;;;0.40;0.20;;;13.70;99.90;;;;;;5061846;28;21062;-75
2023/08/29 07:47:18;;;;;;;0.40;0.20;;;13.70;99.90;;;;;;5063476;28;20489;-75
2023/08/29 07:49:45;;;;;;;0.30;0.17;;;13.60;99.90;;;;;;5059883;28;20461;-76
2023/08/29 07:52:12;;;;;;;0.30;0.20;;;13.50;99.90;;;;;;5062122;28;20511;-74
2023/08/29 07:54:39;;;;;;;0.40;0.20;;;13.50;99.90;;;;;;5064627;28;20506;-77
2023/08/29 07:57:06;;;;;;;0.30;0.20;;;13.50;99.90;;;;;;5066386;28;20490;-77
2023/08/29 07:59:33;;;;;;;0.67;0.20;;;13.40;99.90;;;;;;5062463;28;20855;-74
2023/08/29 08:02:00;;;;;;;0.30;0.20;;;13.40;99.90;;;;;;5059851;28;20463;-74
2023/08/29 08:04:28;;;;;;;1.90;1.50;;;13.50;99.90;;;;;;5061590;28;20908;-75
2023/08/29 08:06:55;;;;;;;0.40;0.20;;;13.40;99.90;;;;;;5066008;28;20461;-74
2023/08/29 08:09:22;;;;;;;0.37;0.20;;;13.50;99.90;;;;;;5058813;28;20612;-77
2023/08/29 08:11:49;;;;;;;0.40;0.20;;;13.60;99.90;;;;;;5062150;28;20471;-75
2023/08/29 08:14:17;;;;;;;0.37;0.20;;;13.70;99.90;;;;;;5059287;28;20446;-76
2023/08/29 08:16:44;;;;;;;0.73;0.30;;;13.80;99.90;;;;;;5066231;28;20501;-76
2023/08/29 08:19:11;;;;;;;0.30;0.20;;;13.90;99.90;;;;;;5063923;28;20493;-73
2023/08/29 08:21:40;;;;;;;0.40;0.20;;;13.60;99.90;;;;;;5062827;28;20474;-73
2023/08/29 08:24:08;;;;;;;0.30;0.20;;;13.60;99.90;;;;;;5055345;28;20878;-75
2023/08/29 08:26:35;;;;;;;0.70;0.20;;;13.60;99.90;;;;;;5063526;28;20457;-73
2023/08/29 08:29:04;;;;;;;0.50;0.20;;;13.60;99.90;;;;;;5064582;28;21095;-75
2023/08/29 08:31:31;;;;;;;2.10;0.30;;;13.80;99.90;;;;;;5061736;28;20460;-73
2023/08/29 08:33:58;;;;;;;0.40;0.20;;;13.90;99.90;;;;;;5056976;28;20449;-73
2023/08/29 08:36:24;;;;;;;0.30;0.20;;;14.00;99.90;;;;;;5061389;28;20566;-73
2023/08/29 08:38:54;;;;;;;0.73;0.20;;;14.20;99.90;;;;;;5063310;28;20494;-73
2023/08/29 08:41:21;;;;;;;0.40;0.30;;;14.20;99.90;;;;;;5056215;28;20486;-77
2023/08/29 08:43:49;;;;;;;0.50;0.20;;;14.30;99.90;;;;;;5067191;28;20489;-73
2023/08/29 08:46:17;;;;;;;0.40;0.23;;;14.30;99.90;;;;;;5059600;28;20460;-73
2023/08/29 08:48:45;;;;;;;0.40;0.20;;;14.20;99.90;;;;;;5064395;28;21016;-73
2023/08/29 08:51:13;;;;;;;0.40;0.20;;;14.30;99.90;;;;;;5066971;28;20447;-73
2023/08/29 08:53:41;;;;;;;0.40;0.20;;;14.40;99.90;;;;;;5066433;28;20543;-76
2023/08/29 08:56:10;;;;;;;0.40;0.20;;;14.70;99.90;;;;;;5063293;28;20449;-73
2023/08/29 08:58:37;;;;;;;0.37;0.20;;;14.80;99.90;;;;;;5063216;28;20871;-78
2023/08/29 09:01:06;;;;;;;0.40;0.30;;;14.60;99.90;;;;;;5061984;28;20817;-73
2023/08/29 09:03:34;;;;;;;0.30;0.20;;;14.80;99.90;;;;;;5064126;28;20514;-75
2023/08/29 09:06:01;;;;;;;0.50;0.20;;;14.80;99.90;;;;;;5063538;28;20488;-73
2023/08/29 09:08:31;;;;;;;0.40;0.20;;;14.70;99.90;;;;;;5059303;28;20982;-76
2023/08/29 09:11:00;;;;;;;0.30;0.20;;;14.50;99.90;;;;;;5061477;28;20499;-77
2023/08/29 09:13:29;;;;;;;0.30;0.20;;;14.50;99.90;;;;;;5063878;28;20516;-72
2023/08/29 09:15:58;;;;;;;0.40;0.20;;;14.60;99.90;;;;;;5062172;28;21289;-73
2023/08/29 09:18:25;;;;;;;0.40;0.30;;;14.40;99.90;;;;;;5053939;28;20474;-74
2023/08/29 09:20:54;;;;;;;0.40;0.30;;;14.40;99.90;;;;;;5053380;28;20452;-72
2023/08/29 09:23:22;;;;;;;0.40;0.30;;;14.40;99.90;;;;;;5061199;28;20450;-77
2023/08/29 09:25:54;;;;;;;0.40;0.30;;;14.30;99.90;;;;;;5063316;28;20576;-74
2023/08/29 09:28:21;;;;;;;0.40;0.20;;;14.20;99.90;;;;;;5061474;28;20459;-75
2023/08/29 09:30:50;;;;;;;0.30;0.20;;;14.30;99.90;;;;;;5064314;28;20498;-75
2023/08/29 09:33:20;;;;;;;0.30;0.20;;;14.40;99.90;;;;;;5061934;28;20446;-74
2023/08/29 09:35:48;;;;;;;0.30;0.20;;;14.50;99.90;;;;;;5060154;28;20548;-73
2023/08/29 09:38:14;;;;;;;0.40;0.20;;;14.40;99.90;;;;;;5060725;28;20436;-73
2023/08/29 09:40:48;;;;;;;0.40;0.30;;;14.40;99.90;;;;;;5061829;28;21011;-74
2023/08/29 09:43:17;;;;;;;0.57;0.40;;;14.60;99.90;;;;;;5062063;28;20452;-76
2023/08/29 09:45:50;;;;;;;0.60;0.40;;;14.70;99.90;;;;;;5060016;28;20484;-74
2023/08/29 09:48:17;;;;;;;0.40;0.33;;;15.00;99.90;;;;;;5059154;28;20570;-74
2023/08/29 09:50:45;;;;;;;0.57;0.30;;;15.00;99.90;;;;;;5060004;28;20448;-74
2023/08/29 09:53:16;;;;;;;0.30;0.20;;;15.10;99.90;;;;;;5063820;28;20510;-74
2023/08/29 09:55:46;;;;;;;0.60;0.40;;;15.20;99.90;;;;;;5060221;28;20496;-75
2023/08/29 09:58:15;;;;;;;0.40;0.30;;;15.40;99.90;;;;;;5059133;28;20527;-74
2023/08/29 10:00:42;;;;;;;0.40;0.30;;;15.10;99.90;;;;;;5059849;28;20946;-77
2023/08/29 10:03:11;;;;;;;0.40;0.20;;;15.30;99.90;;;;;;5055097;28;20467;-74
2023/08/29 10:05:40;;;;;;;0.53;0.40;;;15.20;99.90;;;;;;5062928;28;20518;-76
2023/08/29 10:08:16;;;;;;;1.60;1.03;;;15.00;99.90;;;;;;5054873;28;20508;-74
2023/08/29 10:10:47;;;;;;;0.80;0.80;;;14.70;99.90;;;;;;5060522;28;20501;-76
2023/08/29 10:13:15;;;;;;;0.40;0.20;;;14.60;99.90;;;;;;5059872;28;20453;-75
2023/08/29 10:15:43;;;;;;;0.37;0.23;;;14.60;99.90;;;;;;5068621;28;20448;-75
2023/08/29 10:18:12;;;;;;;0.40;0.30;;;14.50;99.90;;;;;;5064905;28;20488;-76
2023/08/29 10:20:43;;;;;;;3.60;0.20;;;14.40;99.90;;;;;;5066712;28;20452;-77
2023/08/29 10:23:13;;;;;;;0.40;0.30;;;14.50;99.90;;;;;;5066576;28;20454;-75
2023/08/29 10:25:41;;;;;;;0.50;0.30;;;14.50;99.90;;;;;;5067860;28;20485;-75
2023/08/29 10:28:11;;;;;;;0.40;0.30;;;14.40;99.90;;;;;;5064365;28;20469;-75
2023/08/29 10:30:40;;;;;;;2.10;0.77;;;14.40;99.90;;;;;;5067736;28;21223;-74
2023/08/29 10:33:08;;;;;;;1.20;0.97;;;14.40;99.90;;;;;;5063218;28;20459;-74
2023/08/29 10:35:37;;;;;;;0.40;0.20;;;14.40;99.90;;;;;;5066991;28;20479;-74
2023/08/29 10:38:10;;;;;;;0.40;0.30;;;14.50;99.90;;;;;;5060908;28;20508;-76
2023/08/29 10:40:37;;;;;;;0.40;0.30;;;14.60;99.90;;;;;;5065709;28;20432;-75
2023/08/29 10:43:17;;;;;;;0.40;0.30;;;14.60;99.90;;;;;;5069026;28;20448;-76
2023/08/29 10:45:47;;;;;;;1.03;0.30;;;14.70;99.90;;;;;;5064681;28;20476;-75
2023/08/29 10:48:17;;;;;;;0.40;0.30;;;14.90;99.90;;;;;;5065742;28;20536;-76
2023/08/29 10:50:48;;;;;;;0.40;0.30;;;14.90;99.90;;;;;;5058270;28;20528;-76
2023/08/29 10:53:19;;;;;;;0.40;0.30;;;14.90;99.90;;;;;;5065231;28;20466;-77
2023/08/29 10:56:01;;;;;;;0.33;0.20;;;14.80;99.90;;;;;;5067013;28;20787;-76
2023/08/29 10:58:35;;;;;;;0.40;0.30;;;14.90;99.90;;;;;;5059871;28;20443;-76
2023/08/29 11:01:04;;;;;;;0.40;0.30;;;14.80;99.90;;;;;;5052639;28;20552;-77
2023/08/29 11:03:48;;;;;;;0.40;0.30;;;14.90;99.90;;;;;;5066232;28;20521;-75
2023/08/29 11:06:18;;;;;;;0.30;0.20;;;14.90;99.90;;;;;;5063875;28;20628;-76
2023/08/29 11:08:45;;;;;;;0.40;0.23;;;15.00;99.90;;;;;;5061411;28;20458;-75
2023/08/29 11:11:17;;;;;;;0.40;0.27;;;15.00;99.90;;;;;;5062431;28;20482;-76
2023/08/29 11:14:02;;;;;;;0.50;0.30;;;15.00;99.90;;;;;;5064167;28;20449;-76
2023/08/29 11:16:30;;;;;;;0.40;0.30;;;15.20;99.90;;;;;;5059124;28;20464;-74
2023/08/29 11:19:15;;;;;;;0.40;0.30;;;15.40;99.90;;;;;;5062999;28;20441;-76
2023/08/29 11:21:45;;;;;;;0.40;0.37;;;15.60;99.90;;;;;;5063616;28;20795;-75
2023/08/29 11:24:12;;;;;;;0.40;0.30;;;15.60;99.90;;;;;;5064874;28;20501;-77
2023/08/29 11:26:40;;;;;;;0.60;0.50;;;15.70;99.90;;;;;;5055149;28;20982;-75
2023/08/29 11:29:08;;;;;;;0.50;0.30;;;15.90;99.90;;;;;;5058962;28;20552;-76
2023/08/29 11:31:40;;;;;;;0.40;0.30;;;16.20;99.90;;;;;;5066319;28;20947;-76
2023/08/29 11:34:17;;;;;;;1.13;0.40;;;16.10;99.90;;;;;;5067546;28;20525;-75
2023/08/29 11:36:48;;;;;;;0.40;0.37;;;15.90;99.90;;;;;;5048881;28;20899;-75
2023/08/29 11:39:17;;;;;;;0.50;0.40;;;15.70;99.90;;;;;;5062239;28;20524;-75
2023/08/29 11:41:44;;;;;;;0.50;0.40;;;15.60;99.90;;;;;;5062463;28;20450;-76
2023/08/29 11:44:11;;;;;;;0.40;0.33;;;15.60;99.90;;;;;;5067298;28;20494;-77
2023/08/29 11:46:38;;;;;;;0.40;0.30;;;15.40;99.90;;;;;;5057852;28;20615;-76
2023/08/29 11:49:12;;;;;;;0.40;0.30;;;15.30;99.90;;;;;;5064879;28;20523;-77
2023/08/29 11:51:40;;;;;;;0.50;0.30;;;15.20;99.90;;;;;;5061533;28;20443;-75
2023/08/29 11:54:38;;;;;;;1.10;0.37;;;15.30;99.90;;;;;;5066458;28;20469;-77
2023/08/29 11:57:06;;;;;;;0.40;0.30;;;15.50;99.90;;;;;;5062744;28;20911;-75
2023/08/29 11:59:33;;;;;;;0.50;0.40;;;15.60;99.90;;;;;;5056713;28;20438;-76
2023/08/29 12:02:00;;;;;;;0.40;0.30;;;15.50;99.90;;;;;;5060084;28;21030;-76
2023/08/29 12:04:28;;;;;;;0.70;0.40;;;15.50;99.90;;;;;;5055470;28;20486;-76
2023/08/29 12:07:06;;;;;;;0.40;0.30;;;15.50;99.90;;;;;;5064996;28;20516;-74
2023/08/29 12:09:34;;;;;;;0.40;0.30;;;15.50;99.90;;;;;;5059425;28;20512;-75
2023/08/29 12:12:01;;;;;;;0.40;0.30;;;15.60;99.90;;;;;;5060812;28;20510;-75
2023/08/29 12:14:28;;;;;;;0.40;0.30;;;15.50;99.90;;;;;;5060845;28;20465;-74
2023/08/29 12:16:55;;;;;;;0.40;0.40;;;15.40;99.90;;;;;;5056166;28;20511;-76
2023/08/29 12:19:22;;;;;;;0.40;0.30;;;15.50;99.90;;;;;;5062679;28;20486;-75
2023/08/29 12:21:55;;;;;;;0.43;0.30;;;15.50;99.90;;;;;;5060576;28;20976;-76
2023/08/29 12:24:22;;;;;;;0.50;0.40;;;15.30;99.90;;;;;;5062182;28;20441;-75
2023/08/29 12:26:51;;;;;;;0.40;0.30;;;15.10;99.90;;;;;;5054064;28;20507;-75
2023/08/29 12:29:18;;;;;;;0.40;0.40;;;15.10;99.90;;;;;;5057776;28;20476;-74
2023/08/29 12:31:45;;;;;;;0.33;0.20;;;15.10;99.90;;;;;;5056545;28;20445;-75
2023/08/29 12:34:12;;;;;;;1.60;0.30;;;15.20;99.90;;;;;;5059429;28;21242;-76
2023/08/29 12:36:39;;;;;;;0.50;0.50;;;15.30;99.90;;;;;;5052759;28;20511;-75
2023/08/29 12:39:08;;;;;;;0.40;0.30;;;15.40;99.90;;;;;;5054717;28;20446;-76
2023/08/29 12:41:36;;;;;;;0.47;0.30;;;15.30;99.90;;;;;;5063308;28;20672;-75
2023/08/29 12:44:05;;;;;;;0.50;0.40;;;15.30;99.90;;;;;;5059204;28;20461;-76
2023/08/29 12:46:32;;;;;;;0.50;0.40;;;15.20;99.90;;;;;;5065067;28;20847;-75
2023/08/29 12:48:59;;;;;;;0.40;0.33;;;15.10;99.90;;;;;;5059595;28;20455;-76
2023/08/29 12:51:26;;;;;;;0.87;0.30;;;15.30;99.90;;;;;;5057242;28;20494;-75
2023/08/29 12:53:53;;;;;;;0.40;0.30;;;15.20;99.90;;;;;;5060963;28;20508;-76